createdAt,value
2023-09-12T00:04:25.212Z,45.20
2023-09-12T00:09:25.161Z,47.10
2023-09-12T00:14:25.197Z,47.10
2023-09-12T00:19:25.241Z,46.10
2023-09-12T00:24:25.285Z,46.10
2023-09-12T00:29:25.230Z,51.40
2023-09-12T00:34:25.271Z,51.40
2023-09-12T00:39:25.296Z,47.40
2023-09-12T00:44:25.235Z,47.40
2023-09-12T00:49:26.606Z,44.00
2023-09-12T00:59:25.346Z,40.50
2023-09-12T01:14:25.350Z,43.00
2023-09-12T01:24:38.744Z,49.10
2023-09-12T01:29:26.192Z,49.50
2023-09-12T01:44:28.327Z,54.40
2023-09-12T01:54:27.254Z,62.70
2023-09-12T01:59:25.445Z,62.30
2023-09-12T02:14:25.503Z,63.60
2023-09-12T02:19:25.493Z,68.20
2023-09-12T02:34:25.824Z,70.80
2023-09-12T02:39:25.621Z,75.90
2023-09-12T02:59:25.648Z,69.00
2023-09-12T03:19:25.697Z,58.90
2023-09-12T03:29:25.663Z,56.50
2023-09-12T03:34:25.694Z,56.50
2023-09-12T03:44:25.711Z,52.80
2023-09-12T04:04:25.890Z,49.40
2023-09-12T04:09:25.777Z,48.50
2023-09-12T04:14:25.850Z,48.50
2023-09-12T04:19:25.786Z,49.50
2023-09-12T04:24:25.831Z,49.50
2023-09-12T04:29:27.489Z,45.40
2023-09-12T04:34:26.021Z,45.40
2023-09-12T04:44:25.907Z,49.00
2023-09-12T04:49:25.982Z,48.40
2023-09-12T04:59:25.943Z,50.90
2023-09-12T05:14:25.950Z,54.60
2023-09-12T05:19:26.565Z,54.70
2023-09-12T05:29:26.031Z,60.10
2023-09-12T05:34:26.004Z,60.10
2023-09-12T05:44:26.095Z,57.60
2023-09-12T05:59:26.088Z,60.50
2023-09-12T06:04:26.264Z,60.50
2023-09-12T06:09:26.155Z,63.40
2023-09-12T06:14:26.162Z,63.40
2023-09-12T06:19:26.222Z,65.90
2023-09-12T06:29:26.156Z,69.40
2023-09-12T06:34:27.664Z,69.40
2023-09-12T06:49:26.249Z,77.40
2023-09-12T06:54:26.364Z,77.40
2023-09-12T07:09:26.318Z,82.80
2023-09-12T07:14:26.312Z,82.80
2023-09-12T07:24:27.292Z,83.90
2023-09-12T07:39:26.442Z,85.90
2023-09-12T07:44:28.145Z,85.90
2023-09-12T07:49:26.383Z,90.20
2023-09-12T07:54:26.576Z,90.20
2023-09-12T07:59:26.418Z,90.80
2023-09-12T08:04:26.501Z,90.80
2023-09-12T08:14:26.488Z,98.90
2023-09-12T08:19:26.469Z,82.60
2023-09-12T08:24:26.469Z,82.60
2023-09-12T08:29:28.637Z,75.30
2023-09-12T08:34:26.879Z,75.30
2023-09-12T08:39:27.842Z,62.90
2023-09-12T08:44:26.590Z,62.90
2023-09-12T08:54:26.667Z,47.80
2023-09-12T08:59:28.316Z,36.80
2023-09-12T09:04:30.950Z,36.80
2023-09-12T09:09:28.641Z,34.10
2023-09-12T09:24:26.692Z,30.60
2023-09-12T09:29:35.209Z,27.40
2023-09-12T09:44:28.424Z,25.70
2023-09-12T09:49:26.769Z,24.10
2023-09-12T09:54:27.651Z,24.10
2023-09-12T09:59:27.910Z,22.90
2023-09-12T10:04:28.471Z,22.90
2023-09-12T10:09:28.587Z,18.70
2023-09-12T10:19:35.281Z,17.10
2023-09-12T10:24:27.747Z,17.10
2023-09-12T10:29:27.038Z,18.40
2023-09-12T10:34:28.809Z,18.40
2023-09-12T10:39:28.639Z,19.10
2023-09-12T10:44:29.574Z,19.10
2023-09-12T10:49:28.150Z,15.40
2023-09-12T10:54:42.706Z,15.40
2023-09-12T10:59:31.487Z,14.70
2023-09-12T11:04:28.573Z,14.70
2023-09-12T11:09:27.809Z,15.00
2023-09-12T11:14:27.111Z,15.00
2023-09-12T11:19:27.287Z,11.00
2023-09-12T11:24:27.121Z,11.00
2023-09-12T11:29:36.942Z,9.40
2023-09-12T11:34:27.967Z,9.40
2023-09-12T11:39:29.682Z,7.70
2023-09-12T11:44:28.435Z,7.70
2023-09-12T11:49:28.908Z,7.60
2023-09-12T11:54:27.079Z,7.60
2023-09-12T11:59:27.527Z,8.10
2023-09-12T12:04:28.354Z,8.10
2023-09-12T12:09:27.654Z,8.80
2023-09-12T12:14:27.146Z,8.80
2023-09-12T12:19:27.116Z,10.00
2023-09-12T12:29:27.196Z,9.70
2023-09-12T12:35:42.322Z,9.70
2023-09-12T12:44:37.091Z,10.40
2023-09-12T12:49:27.180Z,10.00
2023-09-12T12:54:31.716Z,10.00
2023-09-12T13:04:27.539Z,10.90
2023-09-12T13:09:27.301Z,9.60
2023-09-12T13:14:30.935Z,9.60
2023-09-12T13:19:27.347Z,8.40
2023-09-12T13:24:27.458Z,8.40
2023-09-12T13:29:27.333Z,9.10
2023-09-12T13:34:27.479Z,9.10
2023-09-12T13:39:27.646Z,8.80
2023-09-12T13:44:27.525Z,8.80
2023-09-12T13:54:27.532Z,7.60
2023-09-12T13:59:34.466Z,8.40
2023-09-12T14:09:27.870Z,11.00
2023-09-12T14:14:27.824Z,11.00
2023-09-12T14:19:28.001Z,9.40
2023-09-12T14:24:27.651Z,9.40
2023-09-12T14:29:30.052Z,12.40
2023-09-12T14:34:27.766Z,12.40
2023-09-12T14:39:27.630Z,9.90
2023-09-12T14:44:32.825Z,9.90
2023-09-12T14:49:27.897Z,10.90
2023-09-12T14:54:27.618Z,10.90
2023-09-12T14:59:27.644Z,9.10
2023-09-12T15:04:27.680Z,9.10
2023-09-12T15:09:27.672Z,8.60
2023-09-12T15:14:28.758Z,8.60
2023-09-12T15:19:27.639Z,9.30
2023-09-12T15:24:27.863Z,9.30
2023-09-12T15:29:27.667Z,8.40
2023-09-12T15:39:27.788Z,8.90
2023-09-12T15:44:28.550Z,8.90
2023-09-12T15:49:28.996Z,7.90
2023-09-12T15:59:29.870Z,10.50
2023-09-12T16:04:28.079Z,10.50
2023-09-12T16:09:27.848Z,9.40
2023-09-12T16:19:27.836Z,9.10
2023-09-12T16:29:27.863Z,8.90
2023-09-12T16:34:27.913Z,8.90
2023-09-12T16:39:28.008Z,9.10
2023-09-12T16:49:27.875Z,9.20
2023-09-12T16:59:27.939Z,11.00
2023-09-12T17:04:27.995Z,11.00
2023-09-12T17:09:28.050Z,10.20
2023-09-12T17:19:28.238Z,8.60
2023-09-12T17:29:28.031Z,10.50
2023-09-12T17:44:28.063Z,11.20
2023-09-12T17:49:28.100Z,10.80
2023-09-12T17:54:28.259Z,10.80
2023-09-12T17:59:28.451Z,9.80
2023-09-12T18:09:28.431Z,10.30
2023-09-12T18:19:29.613Z,9.80
2023-09-12T18:24:28.176Z,9.80
2023-09-12T18:29:28.256Z,9.50
2023-09-12T18:39:28.351Z,10.70
2023-09-12T18:44:28.443Z,10.70
2023-09-12T18:49:30.258Z,10.10
2023-09-12T19:09:28.337Z,7.80
2023-09-12T19:14:28.409Z,7.80
2023-09-12T19:19:28.352Z,8.90
2023-09-12T19:29:28.462Z,9.90
2023-09-12T19:34:28.311Z,9.90
2023-09-12T19:39:28.386Z,7.00
2023-09-12T19:49:28.510Z,9.10
2023-09-12T19:59:28.575Z,7.90
2023-09-12T20:14:28.563Z,8.80
2023-09-12T20:19:28.486Z,9.40
2023-09-12T20:29:29.393Z,8.00
2023-09-12T20:49:30.645Z,7.70
2023-09-12T20:54:28.613Z,7.70
2023-09-12T20:59:28.562Z,8.60
2023-09-12T21:04:28.866Z,8.60
2023-09-12T21:09:28.632Z,7.40
2023-09-12T21:19:28.661Z,8.20
2023-09-12T21:24:28.784Z,8.20
2023-09-12T21:29:28.674Z,7.40
2023-09-12T21:34:28.654Z,7.40
2023-09-12T21:39:29.957Z,7.40
2023-09-12T21:44:28.795Z,7.40
2023-09-12T21:49:30.841Z,7.60
2023-09-12T21:54:28.706Z,7.60
2023-09-12T21:59:28.743Z,5.00
2023-09-12T22:04:28.831Z,5.00
2023-09-12T22:09:28.899Z,5.10
2023-09-12T22:14:29.538Z,5.10
2023-09-12T22:19:28.794Z,5.80
2023-09-12T22:24:28.854Z,5.80
2023-09-12T22:29:28.840Z,7.10
2023-09-12T22:39:28.955Z,4.80
2023-09-12T22:44:28.928Z,4.80
2023-09-12T22:49:28.864Z,5.70
2023-09-12T22:59:29.308Z,6.20
2023-09-12T23:04:29.030Z,6.20
2023-09-12T23:09:29.709Z,7.30
2023-09-12T23:14:29.064Z,7.30
2023-09-12T23:19:28.982Z,5.70
2023-09-12T23:24:28.990Z,5.70
2023-09-12T23:29:29.185Z,6.00
2023-09-12T23:34:29.111Z,6.00
2023-09-12T23:39:29.060Z,5.00
2023-09-12T23:49:29.055Z,7.00
